Time;durP1;ratioP1;P1;durP2;ratioP2;P2;SDS_P1;SDS_P2;PMS_P1;PMS_P2;Temp;Humidity;BMP_temperature;BMP_pressure;BME280_temperature;BME280_humidity;BME280_pressure;Samples;Min_cycle;Max_cycle;Signal;HPM_P1;HPM_P2
2022/04/09 00:00:24;;;;;;;5.30;5.00;;;4.50;99.90;;;;;;4990372;28;20041;-71
2022/04/09 00:02:50;;;;;;;5.22;4.90;;;4.40;99.90;;;;;;4990406;28;20128;-72
2022/04/09 00:05:17;;;;;;;6.75;5.93;;;4.40;99.90;;;;;;5004426;28;20081;-72
2022/04/09 00:07:43;;;;;;;6.72;6.20;;;4.30;99.90;;;;;;5010280;28;20049;-72
2022/04/09 00:10:10;;;;;;;10.80;6.57;;;4.30;99.90;;;;;;5009059;28;20041;-72
2022/04/09 00:12:37;;;;;;;12.65;7.15;;;4.30;99.90;;;;;;5006232;28;20584;-72
2022/04/09 00:15:03;;;;;;;13.27;5.55;;;4.30;99.90;;;;;;5014778;28;20534;-72
2022/04/09 00:17:40;;;;;;;6.03;5.47;;;4.20;99.90;;;;;;5009873;28;20045;-72
2022/04/09 00:20:07;;;;;;;5.72;4.65;;;4.30;99.90;;;;;;5018785;28;20674;-72
2022/04/09 00:22:33;;;;;;;4.47;4.18;;;4.30;99.90;;;;;;4992335;28;20449;-72
2022/04/09 00:24:59;;;;;;;4.03;3.83;;;4.40;99.90;;;;;;4990252;28;20061;-72
2022/04/09 00:27:24;;;;;;;6.65;4.18;;;4.50;99.90;;;;;;5009549;28;20045;-72
2022/04/09 00:29:50;;;;;;;9.88;4.05;;;4.50;99.90;;;;;;5004938;28;20120;-72
2022/04/09 00:32:15;;;;;;;5.57;3.67;;;4.60;99.90;;;;;;4975780;28;20088;-72
2022/04/09 00:34:41;;;;;;;6.30;5.72;;;4.80;99.90;;;;;;5008128;28;20046;-72
2022/04/09 00:37:07;;;;;;;13.52;8.82;;;4.90;99.90;;;;;;4993522;28;20052;-72
2022/04/09 00:39:32;;;;;;;8.35;7.78;;;4.90;99.90;;;;;;4996555;28;20083;-71
2022/04/09 00:41:58;;;;;;;9.80;8.98;;;4.70;99.90;;;;;;5010656;28;20042;-72
2022/04/09 00:44:23;;;;;;;6.15;5.85;;;4.50;99.90;;;;;;4997104;28;20033;-72
2022/04/09 00:46:49;;;;;;;5.63;5.22;;;4.40;99.90;;;;;;4997393;28;20037;-72
2022/04/09 00:49:16;;;;;;;4.40;4.10;;;4.40;99.90;;;;;;4996457;28;20577;-72
2022/04/09 00:51:44;;;;;;;4.20;4.00;;;4.40;99.90;;;;;;4993736;28;20156;-72
2022/04/09 00:54:14;;;;;;;7.25;5.13;;;4.40;99.90;;;;;;5009392;28;20037;-72
2022/04/09 00:56:41;;;;;;;5.20;4.72;;;4.30;99.90;;;;;;4997080;28;20124;-72
2022/04/09 00:59:11;;;;;;;5.75;5.25;;;4.40;99.90;;;;;;5012954;28;20037;-71
2022/04/09 01:01:38;;;;;;;10.00;5.60;;;4.40;99.90;;;;;;5011082;28;20042;-72
2022/04/09 01:04:13;;;;;;;20.33;6.07;;;4.40;99.90;;;;;;4992701;28;20040;-72
2022/04/09 01:06:39;;;;;;;6.90;6.40;;;4.30;99.90;;;;;;4997008;28;20468;-72
2022/04/09 01:09:06;;;;;;;8.00;7.50;;;4.30;99.90;;;;;;5012012;28;20072;-72
2022/04/09 01:11:33;;;;;;;9.55;6.30;;;4.20;99.90;;;;;;4996802;28;20045;-72
2022/04/09 01:13:59;;;;;;;5.65;5.35;;;4.20;99.90;;;;;;4995770;28;20083;-71
2022/04/09 01:16:28;;;;;;;5.63;5.32;;;4.10;99.90;;;;;;4996938;28;20138;-71
2022/04/09 01:18:55;;;;;;;9.80;5.53;;;4.10;99.90;;;;;;5009948;28;20555;-72
2022/04/09 01:21:24;;;;;;;6.57;5.97;;;4.10;99.90;;;;;;4995912;28;20117;-72
2022/04/09 01:23:50;;;;;;;7.45;4.15;;;4.10;99.90;;;;;;5013001;28;20056;-72
2022/04/09 01:26:16;;;;;;;6.32;5.93;;;4.00;99.90;;;;;;4988228;28;20835;-71
2022/04/09 01:28:43;;;;;;;7.50;6.75;;;3.90;99.90;;;;;;5006116;28;20352;-72
2022/04/09 01:31:09;;;;;;;6.22;5.85;;;3.80;99.90;;;;;;5008969;28;20134;-71
2022/04/09 01:33:34;;;;;;;7.47;7.00;;;3.80;99.90;;;;;;5003708;28;20478;-72
2022/04/09 01:36:00;;;;;;;8.18;7.30;;;3.80;99.90;;;;;;5008656;28;20034;-72
2022/04/09 01:38:25;;;;;;;7.97;7.47;;;3.80;99.90;;;;;;4991721;28;20519;-72
2022/04/09 01:40:51;;;;;;;7.82;5.82;;;3.80;99.90;;;;;;5001933;28;20082;-71
2022/04/09 01:43:17;;;;;;;5.85;5.45;;;3.90;99.90;;;;;;4995786;28;20041;-71
2022/04/09 01:45:42;;;;;;;6.45;5.93;;;3.80;99.90;;;;;;5003446;28;20041;-72
2022/04/09 01:48:08;;;;;;;7.35;6.85;;;3.80;99.90;;;;;;4992564;28;20129;-72
2022/04/09 01:50:34;;;;;;;5.85;5.53;;;3.80;99.90;;;;;;5005317;28;20041;-72
2022/04/09 01:52:59;;;;;;;18.13;6.90;;;3.80;99.90;;;;;;4974449;28;20039;-72
2022/04/09 01:55:26;;;;;;;5.53;5.22;;;3.80;99.90;;;;;;4991903;28;20484;-72
2022/04/09 01:57:51;;;;;;;6.63;5.57;;;3.80;99.90;;;;;;5009270;28;20046;-72
2022/04/09 02:00:17;;;;;;;19.13;6.35;;;3.70;99.90;;;;;;4991916;28;20042;-73
2022/04/09 02:02:44;;;;;;;6.25;5.85;;;3.80;99.90;;;;;;5008651;28;20037;-72
2022/04/09 02:05:11;;;;;;;6.65;6.25;;;3.80;99.90;;;;;;5008173;28;20041;-72
2022/04/09 02:07:38;;;;;;;4.45;4.25;;;3.80;99.90;;;;;;5008843;28;20501;-72
2022/04/09 02:10:05;;;;;;;5.03;4.72;;;3.80;99.90;;;;;;4992082;28;20056;-72
2022/04/09 02:12:32;;;;;;;4.60;4.40;;;3.80;99.90;;;;;;5008752;28;20493;-72
2022/04/09 02:14:57;;;;;;;8.02;7.25;;;3.80;99.90;;;;;;4985301;28;20498;-73
2022/04/09 02:17:23;;;;;;;5.85;5.45;;;3.70;99.90;;;;;;4997134;28;20042;-72
2022/04/09 02:19:48;;;;;;;4.93;4.63;;;3.70;99.90;;;;;;5008873;28;20087;-72
2022/04/09 02:22:14;;;;;;;5.75;5.45;;;3.60;99.90;;;;;;5008202;28;20073;-72
2022/04/09 02:24:40;;;;;;;5.85;5.50;;;3.60;99.90;;;;;;5008527;28;20076;-72
2022/04/09 02:27:06;;;;;;;7.03;6.57;;;3.50;99.90;;;;;;5011471;28;20069;-72
2022/04/09 02:29:32;;;;;;;5.03;4.72;;;3.50;99.90;;;;;;5011301;28;20053;-73
2022/04/09 02:32:00;;;;;;;5.65;5.35;;;3.50;99.90;;;;;;5008506;28;20045;-72
2022/04/09 02:34:26;;;;;;;8.27;7.57;;;3.40;99.90;;;;;;5011259;28;20095;-73
2022/04/09 02:36:51;;;;;;;5.53;5.22;;;3.40;99.90;;;;;;4994415;28;20034;-72
2022/04/09 02:39:21;;;;;;;6.45;6.05;;;3.40;99.90;;;;;;4995034;28;20570;-72
2022/04/09 02:41:48;;;;;;;5.38;5.07;;;3.40;99.90;;;;;;5013812;28;20046;-72
2022/04/09 02:44:13;;;;;;;4.55;4.35;;;3.30;99.90;;;;;;4994228;28;20041;-72
2022/04/09 02:46:39;;;;;;;7.50;7.00;;;3.30;99.90;;;;;;5005744;28;20048;-72
2022/04/09 02:49:05;;;;;;;6.00;5.70;;;3.30;99.90;;;;;;5002997;28;20050;-72
2022/04/09 02:51:30;;;;;;;5.20;4.90;;;3.20;99.90;;;;;;4991555;28;20060;-72
2022/04/09 02:53:56;;;;;;;5.47;5.18;;;3.20;99.90;;;;;;5021700;28;20501;-72
2022/04/09 02:56:21;;;;;;;5.60;5.30;;;3.30;99.90;;;;;;5006317;28;20049;-72
2022/04/09 02:58:47;;;;;;;6.60;6.20;;;3.20;99.90;;;;;;5005732;28;20048;-72
2022/04/09 03:01:12;;;;;;;8.25;7.65;;;3.30;99.90;;;;;;4994066;28;20048;-73
2022/04/09 03:03:38;;;;;;;8.57;8.07;;;3.30;99.90;;;;;;5008779;28;20474;-73
2022/04/09 03:06:04;;;;;;;7.50;7.10;;;3.30;99.90;;;;;;5010940;28;20045;-72
2022/04/09 03:08:29;;;;;;;7.60;7.15;;;3.40;99.90;;;;;;5010600;28;20041;-72
2022/04/09 03:10:55;;;;;;;5.38;5.07;;;3.50;99.90;;;;;;4996380;28;20467;-72
2022/04/09 03:13:21;;;;;;;5.97;5.50;;;3.50;99.90;;;;;;5001036;28;20079;-73
2022/04/09 03:15:47;;;;;;;4.90;4.60;;;3.60;99.90;;;;;;5004134;28;20091;-72
2022/04/09 03:18:12;;;;;;;15.57;5.50;;;3.70;99.90;;;;;;4989817;28;20037;-72
2022/04/09 03:20:38;;;;;;;5.30;5.00;;;3.70;99.90;;;;;;5010977;28;20033;-73
2022/04/09 03:23:04;;;;;;;4.60;4.40;;;3.70;99.90;;;;;;4993513;28;20063;-72
2022/04/09 03:25:29;;;;;;;5.65;5.35;;;3.60;99.90;;;;;;5010249;28;20045;-72
2022/04/09 03:27:55;;;;;;;5.13;4.82;;;3.60;99.90;;;;;;5010431;28;20052;-72
2022/04/09 03:30:20;;;;;;;6.05;5.75;;;3.50;99.90;;;;;;5010988;28;20041;-72
2022/04/09 03:32:46;;;;;;;5.80;5.50;;;3.40;99.90;;;;;;4993290;28;20037;-72
2022/04/09 03:35:12;;;;;;;8.20;7.20;;;3.40;99.90;;;;;;5010647;28;20175;-72
2022/04/09 03:37:38;;;;;;;8.23;7.53;;;3.30;99.90;;;;;;5010038;28;20092;-72
2022/04/09 03:40:05;;;;;;;5.50;5.20;;;3.40;99.90;;;;;;5007441;28;20128;-72
2022/04/09 03:42:31;;;;;;;7.57;7.18;;;3.50;99.90;;;;;;5000803;28;20435;-72
2022/04/09 03:44:57;;;;;;;4.57;4.38;;;3.50;99.90;;;;;;5010720;28;20041;-72
2022/04/09 03:47:23;;;;;;;7.22;6.78;;;3.50;99.90;;;;;;5009263;28;20053;-72
2022/04/09 03:49:49;;;;;;;9.00;8.32;;;3.40;99.90;;;;;;4994906;28;20571;-73
2022/04/09 03:52:14;;;;;;;7.40;6.80;;;3.50;99.90;;;;;;5010136;28;20072;-73
2022/04/09 03:54:41;;;;;;;5.10;4.80;;;3.50;99.90;;;;;;5007855;28;20497;-73
2022/04/09 03:57:07;;;;;;;8.23;5.95;;;3.50;99.90;;;;;;4978866;28;20133;-72
2022/04/09 03:59:33;;;;;;;6.70;6.20;;;3.50;99.90;;;;;;4991075;28;20120;-72
2022/04/09 04:01:58;;;;;;;15.85;7.60;;;3.50;99.90;;;;;;5010018;28;20485;-73
2022/04/09 04:04:24;;;;;;;4.70;4.40;;;3.50;99.90;;;;;;4993898;28;20067;-73
2022/04/09 04:06:50;;;;;;;4.75;4.50;;;3.50;99.90;;;;;;4994091;28;20512;-73
2022/04/09 04:09:16;;;;;;;4.97;4.68;;;3.50;99.90;;;;;;5021310;28;20374;-72
2022/04/09 04:11:45;;;;;;;5.05;4.75;;;3.50;99.90;;;;;;4991636;28;20139;-72
2022/04/09 04:14:12;;;;;;;4.57;4.32;;;3.50;99.90;;;;;;5010367;28;20580;-72
2022/04/09 04:16:38;;;;;;;6.65;6.20;;;3.50;99.90;;;;;;5007861;28;20106;-72
2022/04/09 04:19:04;;;;;;;6.68;6.28;;;3.60;99.90;;;;;;5005206;28;20041;-72
2022/04/09 04:21:30;;;;;;;5.82;5.43;;;3.60;99.90;;;;;;4997605;28;20042;-73
2022/04/09 04:23:56;;;;;;;4.68;4.43;;;3.70;99.90;;;;;;4997369;28;20425;-72
2022/04/09 04:26:21;;;;;;;6.65;5.85;;;3.70;99.90;;;;;;4997540;28;20057;-72
2022/04/09 04:28:48;;;;;;;4.82;4.55;;;3.70;99.90;;;;;;4997412;28;20049;-72
2022/04/09 04:31:17;;;;;;;5.22;4.93;;;3.70;99.90;;;;;;4997333;28;20045;-72
2022/04/09 04:33:43;;;;;;;5.85;5.55;;;3.70;99.90;;;;;;5011790;28;20095;-72
2022/04/09 04:36:09;;;;;;;8.57;5.45;;;3.70;99.90;;;;;;4997607;28;20426;-72
2022/04/09 04:38:34;;;;;;;6.90;6.22;;;3.70;99.90;;;;;;5010135;28;20494;-72
2022/04/09 04:41:01;;;;;;;5.88;5.32;;;3.70;99.90;;;;;;4997421;28;20468;-72
2022/04/09 04:43:26;;;;;;;7.10;5.97;;;3.60;99.90;;;;;;5010838;28;20489;-72
2022/04/09 04:45:52;;;;;;;5.70;5.22;;;3.60;99.90;;;;;;4997646;28;20038;-72
2022/04/09 04:48:20;;;;;;;4.93;4.60;;;3.60;99.90;;;;;;5007589;28;20037;-72
2022/04/09 04:50:46;;;;;;;6.63;6.03;;;3.60;99.90;;;;;;4997277;28;20046;-72
2022/04/09 04:53:12;;;;;;;5.10;4.80;;;3.60;99.90;;;;;;4997162;28;20045;-72
2022/04/09 04:55:38;;;;;;;4.70;4.50;;;3.50;99.90;;;;;;4997251;28;20382;-73
2022/04/09 04:58:04;;;;;;;4.63;4.43;;;3.50;99.90;;;;;;4997466;28;20045;-72
2022/04/09 05:00:30;;;;;;;5.30;5.00;;;3.50;99.90;;;;;;5008112;28;20056;-72
2022/04/09 05:02:56;;;;;;;3.78;3.58;;;3.40;99.90;;;;;;4977545;28;20460;-73
2022/04/09 05:05:22;;;;;;;4.32;4.13;;;3.40;99.90;;;;;;4996540;28;20084;-72
2022/04/09 05:07:49;;;;;;;12.57;4.32;;;3.40;99.90;;;;;;5013085;28;20547;-73
2022/04/09 05:10:17;;;;;;;5.47;4.97;;;3.50;99.90;;;;;;5012445;28;20037;-72
2022/04/09 05:12:44;;;;;;;5.05;4.75;;;3.50;99.90;;;;;;4977410;28;20053;-72
2022/04/09 05:15:12;;;;;;;3.70;3.40;;;3.50;99.90;;;;;;5011973;28;20388;-73
2022/04/09 05:17:38;;;;;;;4.53;4.32;;;3.60;99.90;;;;;;4996651;28;20406;-72
2022/04/09 05:20:09;;;;;;;4.07;3.88;;;3.60;99.90;;;;;;5002095;28;20120;-72
2022/04/09 05:22:36;;;;;;;5.75;4.70;;;3.70;99.90;;;;;;5012438;28;20075;-72
2022/04/09 05:25:03;;;;;;;5.03;4.72;;;3.70;99.90;;;;;;5008724;28;20050;-72
2022/04/09 05:27:28;;;;;;;5.50;5.20;;;3.70;99.90;;;;;;4993081;28;20095;-73
2022/04/09 05:29:54;;;;;;;4.57;4.38;;;3.70;99.90;;;;;;5008607;28;20128;-72
2022/04/09 05:32:20;;;;;;;3.97;3.78;;;3.70;99.90;;;;;;5006068;28;20124;-72
2022/04/09 05:34:46;;;;;;;6.03;5.63;;;3.70;99.90;;;;;;5002360;28;20050;-72
2022/04/09 05:37:12;;;;;;;6.85;6.28;;;3.80;99.90;;;;;;4992710;28;20436;-72
2022/04/09 05:39:37;;;;;;;8.05;6.65;;;3.90;99.90;;;;;;5009239;28;20120;-72
2022/04/09 05:42:04;;;;;;;13.73;4.15;;;4.20;99.90;;;;;;5007949;28;20034;-73
2022/04/09 05:44:30;;;;;;;6.20;5.65;;;4.50;99.90;;;;;;4992948;28;20107;-72
2022/04/09 05:46:56;;;;;;;8.23;5.22;;;4.70;99.90;;;;;;4992990;28;20505;-73
2022/04/09 05:49:22;;;;;;;6.13;4.07;;;4.90;99.90;;;;;;5009408;28;20042;-73
2022/04/09 05:51:48;;;;;;;5.75;5.35;;;4.90;99.90;;;;;;4991221;28;20077;-72
2022/04/09 05:54:14;;;;;;;5.22;4.93;;;4.90;99.90;;;;;;5008717;28;20052;-73
2022/04/09 05:56:39;;;;;;;9.52;6.75;;;4.80;99.90;;;;;;5008968;28;20418;-73
2022/04/09 05:59:05;;;;;;;5.15;4.75;;;4.80;99.90;;;;;;4983970;28;20042;-72
2022/04/09 06:01:31;;;;;;;6.05;5.63;;;4.80;99.90;;;;;;5004889;28;20042;-72
2022/04/09 06:03:57;;;;;;;6.25;5.78;;;4.90;99.90;;;;;;4976068;28;20030;-72
2022/04/09 06:06:23;;;;;;;8.80;5.30;;;4.90;99.90;;;;;;5002319;28;20042;-73
2022/04/09 06:08:49;;;;;;;5.60;5.18;;;4.90;99.90;;;;;;4992045;28;20091;-73
2022/04/09 06:11:17;;;;;;;4.82;4.45;;;4.90;99.90;;;;;;4991425;28;20482;-73
2022/04/09 06:13:43;;;;;;;5.55;4.78;;;4.90;99.90;;;;;;4988048;28;20042;-73
2022/04/09 06:16:09;;;;;;;12.68;6.15;;;4.80;99.90;;;;;;4973426;28;20030;-70
2022/04/09 06:18:38;;;;;;;6.35;5.75;;;4.80;99.90;;;;;;4997640;28;20045;-73
2022/04/09 06:21:14;;;;;;;5.05;4.60;;;4.80;99.90;;;;;;5007623;28;20402;-71
2022/04/09 06:23:39;;;;;;;5.50;5.10;;;5.00;99.90;;;;;;5003188;28;20455;-71
2022/04/09 06:26:06;;;;;;;5.82;5.30;;;5.30;99.90;;;;;;4986800;28;20046;-72
2022/04/09 06:28:33;;;;;;;5.65;5.25;;;5.60;99.90;;;;;;4988423;28;20502;-72
2022/04/09 06:30:59;;;;;;;8.68;5.35;;;5.90;99.90;;;;;;4989512;28;20049;-71
2022/04/09 06:33:25;;;;;;;6.85;3.90;;;6.30;99.90;;;;;;4990198;28;20050;-72
2022/04/09 06:35:51;;;;;;;6.38;3.78;;;6.60;99.90;;;;;;4991174;28;20050;-72
2022/04/09 06:38:17;;;;;;;10.82;4.32;;;6.60;99.90;;;;;;4991530;28;20581;-72
2022/04/09 06:40:43;;;;;;;6.95;3.58;;;6.40;99.90;;;;;;5008078;28;20041;-72
2022/04/09 06:43:09;;;;;;;10.38;5.55;;;6.30;99.90;;;;;;5007223;28;20042;-72
2022/04/09 06:45:34;;;;;;;5.53;4.15;;;6.30;99.90;;;;;;4984421;28;20034;-72
2022/04/09 06:48:00;;;;;;;5.35;4.15;;;6.30;99.90;;;;;;5007021;28;20033;-72
2022/04/09 06:50:28;;;;;;;2.97;2.78;;;6.30;99.90;;;;;;5007752;28;20180;-72
2022/04/09 06:52:53;;;;;;;9.88;3.42;;;6.40;99.90;;;;;;4999209;28;20177;-72
2022/04/09 06:55:19;;;;;;;3.28;3.08;;;6.50;99.90;;;;;;4988063;28;20128;-72
2022/04/09 06:57:44;;;;;;;3.28;2.95;;;6.60;99.90;;;;;;5004812;28;20054;-72
2022/04/09 07:00:12;;;;;;;12.30;3.65;;;6.70;99.90;;;;;;5003018;28;20073;-72
2022/04/09 07:02:38;;;;;;;2.45;2.35;;;6.90;99.90;;;;;;5007827;28;20049;-72
2022/04/09 07:05:05;;;;;;;3.28;2.97;;;7.10;99.90;;;;;;4987754;28;20041;-72
2022/04/09 07:07:31;;;;;;;6.15;3.33;;;7.40;99.90;;;;;;4991871;28;20382;-72
2022/04/09 07:10:06;;;;;;;8.35;2.67;;;7.50;99.90;;;;;;4991418;28;20041;-72
2022/04/09 07:12:32;;;;;;;4.78;2.30;;;7.60;99.90;;;;;;4991806;28;20050;-72
2022/04/09 07:14:58;;;;;;;6.00;2.38;;;7.60;99.90;;;;;;4989240;28;20512;-72
2022/04/09 07:17:26;;;;;;;3.90;2.10;;;7.50;99.90;;;;;;4991978;28;20050;-72
2022/04/09 07:20:03;;;;;;;5.72;2.25;;;7.40;99.90;;;;;;5007792;28;20116;-72
2022/04/09 07:22:29;;;;;;;8.63;2.88;;;7.30;99.90;;;;;;5007299;28;20121;-72
2022/04/09 07:24:55;;;;;;;3.25;2.92;;;7.20;99.90;;;;;;5008209;28;20468;-72
2022/04/09 07:27:32;;;;;;;7.63;2.25;;;7.20;99.90;;;;;;5008513;28;20124;-72
2022/04/09 07:29:58;;;;;;;3.20;2.90;;;7.30;99.90;;;;;;5013658;28;20520;-72
2022/04/09 07:32:24;;;;;;;6.03;2.40;;;7.40;99.90;;;;;;4979228;28;20076;-72
2022/04/09 07:34:49;;;;;;;2.13;1.92;;;7.50;99.90;;;;;;5009809;28;20136;-72
2022/04/09 07:37:15;;;;;;;2.65;2.35;;;7.50;99.90;;;;;;5007389;28;20502;-72
2022/04/09 07:39:40;;;;;;;4.13;2.60;;;7.40;99.90;;;;;;4991543;28;20168;-72
2022/04/09 07:42:06;;;;;;;8.95;4.07;;;7.20;99.90;;;;;;4994067;28;20132;-72
2022/04/09 07:44:32;;;;;;;3.33;2.40;;;7.20;99.90;;;;;;5007683;28;20424;-72
2022/04/09 07:46:57;;;;;;;7.68;3.70;;;7.30;99.90;;;;;;4994834;28;20243;-72
2022/04/09 07:49:23;;;;;;;5.30;4.10;;;7.40;99.90;;;;;;4995525;28;20395;-72
2022/04/09 07:51:48;;;;;;;9.07;3.17;;;7.40;99.90;;;;;;5009231;28;20045;-72
2022/04/09 07:54:15;;;;;;;7.53;3.67;;;7.50;99.90;;;;;;4998474;28;20516;-72
2022/04/09 07:56:41;;;;;;;9.40;3.47;;;7.60;99.90;;;;;;5011114;28;20045;-72
2022/04/09 07:59:07;;;;;;;13.57;3.20;;;7.90;99.90;;;;;;5011195;28;20053;-72
2022/04/09 08:01:32;;;;;;;8.13;2.78;;;8.10;99.90;;;;;;5011655;28;20486;-71
2022/04/09 08:03:58;;;;;;;7.82;1.77;;;8.20;99.90;;;;;;4995420;28;20120;-72
2022/04/09 08:06:24;;;;;;;14.32;3.75;;;8.20;99.90;;;;;;4995612;28;20044;-72
2022/04/09 08:08:49;;;;;;;5.13;2.63;;;8.10;99.90;;;;;;4994854;28;20046;-72
2022/04/09 08:11:15;;;;;;;5.60;1.92;;;8.20;99.90;;;;;;4994905;28;20171;-72
2022/04/09 08:13:40;;;;;;;15.30;2.28;;;8.20;99.90;;;;;;5013394;28;20376;-72
2022/04/09 08:16:06;;;;;;;4.82;1.85;;;8.30;99.90;;;;;;5014403;28;20057;-72
2022/04/09 08:18:31;;;;;;;4.22;1.38;;;8.40;99.90;;;;;;5009513;28;20041;-72
2022/04/09 08:20:57;;;;;;;4.95;2.10;;;8.40;99.90;;;;;;5014108;28;20045;-72
2022/04/09 08:23:23;;;;;;;7.97;1.85;;;8.50;99.90;;;;;;4997580;28;20044;-72
2022/04/09 08:25:49;;;;;;;10.93;1.70;;;8.70;99.90;;;;;;5002750;28;20135;-71
2022/04/09 08:28:16;;;;;;;11.45;2.22;;;8.70;99.90;;;;;;5017108;28;20103;-72
2022/04/09 08:30:43;;;;;;;5.10;2.00;;;8.60;99.90;;;;;;4987496;28;20045;-72
2022/04/09 08:33:10;;;;;;;6.03;1.42;;;8.50;99.90;;;;;;5014123;28;20060;-72
2022/04/09 08:35:36;;;;;;;8.77;1.80;;;8.70;99.90;;;;;;5013243;28;20060;-72
2022/04/09 08:38:03;;;;;;;8.07;2.13;;;8.90;99.90;;;;;;5011849;28;20053;-71
2022/04/09 08:40:30;;;;;;;7.03;1.63;;;9.00;99.90;;;;;;4993760;28;20044;-72
2022/04/09 08:42:56;;;;;;;4.72;1.42;;;9.00;99.90;;;;;;5025089;28;20044;-72
2022/04/09 08:45:22;;;;;;;7.38;1.90;;;9.00;99.90;;;;;;4978261;28;20398;-72
2022/04/09 08:47:48;;;;;;;6.95;1.83;;;8.90;99.90;;;;;;4987177;28;20034;-71
2022/04/09 08:50:14;;;;;;;3.35;1.70;;;9.30;99.90;;;;;;4978295;28;20049;-72
2022/04/09 08:52:46;;;;;;;2.17;1.00;;;9.70;99.90;;;;;;5003194;28;20045;-72
2022/04/09 08:55:13;;;;;;;8.15;2.25;;;10.00;99.90;;;;;;4999410;28;20049;-72
2022/04/09 08:57:40;;;;;;;3.65;1.65;;;9.90;99.90;;;;;;5002948;28;20121;-72
2022/04/09 09:00:12;;;;;;;3.63;1.23;;;9.30;99.90;;;;;;4978247;28;20091;-72
2022/04/09 09:02:47;;;;;;;4.28;2.92;;;8.60;99.90;;;;;;4982242;28;20077;-72
2022/04/09 09:05:29;;;;;;;7.50;2.60;;;8.10;99.90;;;;;;5008858;28;20045;-71
2022/04/09 09:07:54;;;;;;;2.83;1.75;;;8.00;99.90;;;;;;5012375;28;20045;-72
2022/04/09 09:10:21;;;;;;;2.10;1.45;;;8.30;99.90;;;;;;5029085;28;20048;-72
2022/04/09 09:13:04;;;;;;;1.10;1.10;;;8.20;99.90;;;;;;5013361;28;20103;-73
2022/04/09 09:15:29;;;;;;;1.90;1.80;;;7.90;99.90;;;;;;4995225;28;20409;-71
2022/04/09 09:17:59;;;;;;;3.80;2.70;;;7.70;99.90;;;;;;4993243;28;20044;-72
2022/04/09 09:20:25;;;;;;;2.75;2.55;;;7.40;99.90;;;;;;5005781;28;20041;-72
2022/04/09 09:22:52;;;;;;;5.28;4.75;;;7.20;99.90;;;;;;4993707;28;20117;-72
2022/04/09 09:25:18;;;;;;;6.60;5.20;;;7.10;99.90;;;;;;5019068;28;20520;-72
2022/04/09 09:27:44;;;;;;;4.20;4.00;;;7.80;99.90;;;;;;4995962;28;20405;-72
2022/04/09 09:30:11;;;;;;;8.82;3.00;;;8.90;99.90;;;;;;5012888;28;20056;-72
2022/04/09 09:32:41;;;;;;;8.43;3.83;;;9.90;99.90;;;;;;5012513;28;20517;-72
2022/04/09 09:35:09;;;;;;;6.15;2.42;;;10.70;99.90;;;;;;5009100;28;20050;-72
2022/04/09 09:37:35;;;;;;;5.97;2.63;;;11.10;99.90;;;;;;4996092;28;20046;-72
2022/04/09 09:40:01;;;;;;;3.40;1.75;;;11.40;99.90;;;;;;5012250;28;20045;-73
2022/04/09 09:42:26;;;;;;;2.72;1.48;;;11.30;99.90;;;;;;5012250;28;20497;-72
2022/04/09 09:44:52;;;;;;;5.35;2.03;;;10.60;99.90;;;;;;5012433;28;20071;-73
2022/04/09 09:47:18;;;;;;;7.38;1.73;;;10.00;99.90;;;;;;4996209;28;20128;-73
2022/04/09 09:49:47;;;;;;;6.50;2.22;;;9.60;99.90;;;;;;4996389;28;20056;-71
2022/04/09 09:52:13;;;;;;;1.33;1.13;;;9.00;99.90;;;;;;4993063;28;20052;-72
2022/04/09 09:55:13;;;;;;;2.67;1.70;;;8.60;99.90;;;;;;4985075;28;20037;-71
2022/04/09 09:57:39;;;;;;;1.50;1.42;;;8.60;99.90;;;;;;4988527;28;20041;-73
2022/04/09 10:00:07;;;;;;;2.50;2.40;;;8.90;99.90;;;;;;5005601;28;20034;-72
2022/04/09 10:02:33;;;;;;;1.20;1.10;;;9.30;99.90;;;;;;4993272;28;20534;-72
2022/04/09 10:04:59;;;;;;;3.92;1.83;;;9.70;99.90;;;;;;5005789;28;20060;-72
2022/04/09 10:07:25;;;;;;;4.30;2.03;;;9.80;99.90;;;;;;4988853;28;20045;-73
2022/04/09 10:09:53;;;;;;;2.65;2.45;;;9.80;99.90;;;;;;5010857;28;20037;-72
2022/04/09 10:12:20;;;;;;;5.05;2.00;;;9.80;99.90;;;;;;5009757;28;20129;-72
2022/04/09 10:14:55;;;;;;;3.60;1.77;;;9.90;99.90;;;;;;4990584;28;20046;-72
2022/04/09 10:17:23;;;;;;;3.13;1.50;;;10.10;99.90;;;;;;5004787;28;20037;-72
2022/04/09 10:19:54;;;;;;;9.77;2.17;;;10.10;99.90;;;;;;5026851;28;20060;-72
2022/04/09 10:22:25;;;;;;;3.15;1.35;;;10.10;99.90;;;;;;5009722;28;20120;-71
2022/04/09 10:24:52;;;;;;;4.60;1.35;;;10.10;99.90;;;;;;5001948;28;20049;-71
2022/04/09 10:27:48;;;;;;;3.20;1.08;;;10.30;99.90;;;;;;5006563;28;20046;-72
2022/04/09 10:30:17;;;;;;;0.98;0.93;;;10.40;99.90;;;;;;4990183;28;20160;-72
2022/04/09 10:32:45;;;;;;;1.15;0.93;;;10.10;99.90;;;;;;5008401;28;20044;-72
2022/04/09 10:35:40;;;;;;;4.40;1.40;;;10.10;99.90;;;;;;4993031;28;20038;-72
2022/04/09 10:38:09;;;;;;;3.05;1.02;;;10.20;99.90;;;;;;5019846;28;20485;-72
2022/04/09 10:40:36;;;;;;;2.15;1.27;;;9.90;99.90;;;;;;4991666;28;20786;-72
2022/04/09 10:43:04;;;;;;;0.65;0.65;;;9.70;99.90;;;;;;5027572;28;20033;-72
2022/04/09 10:45:32;;;;;;;1.90;0.93;;;9.40;99.90;;;;;;4992400;28;20540;-72
2022/04/09 10:48:13;;;;;;;0.75;0.75;;;9.30;99.90;;;;;;4987007;28;20044;-72
2022/04/09 10:51:05;;;;;;;0.60;0.60;;;9.30;99.90;;;;;;4994996;28;20091;-73
2022/04/09 10:53:33;;;;;;;9.13;2.22;;;9.30;99.90;;;;;;5003191;28;20531;-72
2022/04/09 10:56:20;;;;;;;1.38;0.90;;;9.20;99.90;;;;;;4991290;28;20030;-72
2022/04/09 10:59:11;;;;;;;1.40;1.30;;;8.90;99.90;;;;;;5006033;28;20132;-72
2022/04/09 11:01:46;;;;;;;3.70;2.10;;;8.50;99.90;;;;;;5000799;28;20906;-72
2022/04/09 11:04:36;;;;;;;2.72;1.98;;;8.30;99.90;;;;;;5026299;28;20379;-72
2022/04/09 11:07:12;;;;;;;3.85;2.38;;;8.20;99.90;;;;;;5023899;28;20037;-72
2022/04/09 11:09:57;;;;;;;3.45;1.92;;;8.40;99.90;;;;;;5008731;28;20053;-72
2022/04/09 11:12:38;;;;;;;8.40;2.55;;;8.70;99.90;;;;;;5021699;28;20053;-70
2022/04/09 11:15:05;;;;;;;4.70;1.35;;;8.90;99.90;;;;;;5011554;28;20076;-69
2022/04/09 11:17:33;;;;;;;4.68;1.73;;;8.80;99.90;;;;;;5010669;28;20441;-72
2022/04/09 11:20:10;;;;;;;1.10;1.10;;;8.70;99.90;;;;;;4988527;28;20107;-72
2022/04/09 11:22:47;;;;;;;6.05;1.10;;;8.60;99.90;;;;;;4990812;28;20128;-72
2022/04/09 11:25:21;;;;;;;3.58;1.65;;;8.60;99.90;;;;;;4977780;28;20414;-72
2022/04/09 11:27:47;;;;;;;0.63;0.63;;;8.70;99.90;;;;;;4991229;28;20038;-73
2022/04/09 11:30:13;;;;;;;1.90;1.25;;;9.10;99.90;;;;;;5008792;28;20037;-72
2022/04/09 11:32:39;;;;;;;3.22;1.00;;;9.40;99.90;;;;;;4994089;28;20049;-72
2022/04/09 11:35:10;;;;;;;6.88;1.25;;;9.60;99.90;;;;;;5010263;28;20055;-72
2022/04/09 11:37:42;;;;;;;2.30;1.08;;;10.10;99.90;;;;;;5010285;28;20053;-72
2022/04/09 11:40:10;;;;;;;2.27;1.30;;;10.40;99.90;;;;;;5007284;28;20064;-72
2022/04/09 11:42:53;;;;;;;7.75;1.88;;;10.10;99.90;;;;;;5010832;28;20055;-72
2022/04/09 11:45:23;;;;;;;4.15;0.77;;;9.80;99.90;;;;;;5009911;28;20040;-72
2022/04/09 11:47:50;;;;;;;5.65;1.30;;;9.60;99.90;;;;;;4994063;28;20042;-72
2022/04/09 11:50:16;;;;;;;7.95;1.63;;;9.50;99.90;;;;;;4994244;28;20429;-72
2022/04/09 11:52:43;;;;;;;6.82;1.50;;;9.50;99.90;;;;;;4990721;28;20471;-72
2022/04/09 11:55:15;;;;;;;2.58;1.40;;;9.30;99.90;;;;;;5007850;28;20096;-72
2022/04/09 11:57:52;;;;;;;1.73;1.30;;;8.90;99.90;;;;;;4999604;28;20056;-73
2022/04/09 12:00:22;;;;;;;2.33;1.50;;;8.70;99.90;;;;;;4991040;28;20045;-72
2022/04/09 12:02:48;;;;;;;3.13;1.00;;;8.80;99.90;;;;;;5004919;28;20040;-72
2022/04/09 12:05:15;;;;;;;3.03;1.40;;;9.10;99.90;;;;;;5004936;28;20045;-72
2022/04/09 12:07:42;;;;;;;0.73;0.68;;;9.30;99.90;;;;;;5008639;28;20148;-72
2022/04/09 12:10:22;;;;;;;3.08;1.17;;;9.60;99.90;;;;;;5009928;28;20053;-72
2022/04/09 12:12:57;;;;;;;2.75;1.30;;;9.80;99.90;;;;;;5009266;28;20047;-72
2022/04/09 12:15:30;;;;;;;3.50;1.33;;;10.00;99.90;;;;;;5009701;28;20049;-72
2022/04/09 12:17:57;;;;;;;2.28;1.08;;;10.00;99.90;;;;;;4992380;28;20045;-72
2022/04/09 12:20:36;;;;;;;2.08;1.10;;;10.10;99.90;;;;;;5007008;28;20485;-72
2022/04/09 12:23:03;;;;;;;2.28;1.10;;;10.00;99.90;;;;;;5006115;28;20426;-72
2022/04/09 12:25:47;;;;;;;9.30;1.85;;;9.90;99.90;;;;;;5004398;28;20414;-72
2022/04/09 12:28:22;;;;;;;3.05;1.25;;;9.70;99.90;;;;;;5003704;28;20049;-72
2022/04/09 12:30:49;;;;;;;2.03;1.13;;;9.70;99.90;;;;;;5001840;28;20037;-71
2022/04/09 12:33:15;;;;;;;2.25;1.08;;;9.70;99.90;;;;;;5005618;28;20049;-72
2022/04/09 12:35:41;;;;;;;3.38;1.20;;;9.70;99.90;;;;;;4995725;28;20033;-71
2022/04/09 12:38:06;;;;;;;3.13;1.73;;;9.60;99.90;;;;;;5010973;28;21407;-72
2022/04/09 12:40:33;;;;;;;4.60;1.00;;;9.70;99.90;;;;;;5011564;28;20208;-72
2022/04/09 12:43:00;;;;;;;1.45;1.20;;;9.80;99.90;;;;;;5011009;28;20144;-71
2022/04/09 12:45:28;;;;;;;4.43;1.00;;;9.90;99.90;;;;;;4994535;28;20359;-72
2022/04/09 12:47:58;;;;;;;1.20;0.70;;;10.10;99.90;;;;;;5009000;28;20045;-72
2022/04/09 12:50:29;;;;;;;0.77;0.70;;;10.20;99.90;;;;;;5011367;28;20521;-71
2022/04/09 12:52:57;;;;;;;3.42;1.10;;;10.20;99.90;;;;;;5012729;28;20033;-72
2022/04/09 12:55:25;;;;;;;1.00;0.80;;;10.50;99.90;;;;;;4995780;28;20333;-72
2022/04/09 12:57:51;;;;;;;2.03;1.10;;;10.30;99.90;;;;;;4994850;28;20064;-72